Time;durP1;ratioP1;P1;durP2;ratioP2;P2;SDS_P1;SDS_P2;PMS_P1;PMS_P2;Temp;Humidity;BMP_temperature;BMP_pressure;BME280_temperature;BME280_humidity;BME280_pressure;Samples;Min_cycle;Max_cycle;Signal;HPM_P1;HPM_P2
2021/07/27 00:00:22;;;;;;;;;;;;;;;;;;5034305;28;19932;-91
2021/07/27 00:02:50;;;;;;;;;;;;;;;;;;5032263;28;19925;-91
2021/07/27 00:05:19;;;;;;;;;;;;;;;;;;5034649;28;19932;-92
2021/07/27 00:07:47;;;;;;;;;;;;;;;;;;5024798;28;19929;-93
2021/07/27 00:10:15;;;;;;;;;;;;;;;;;;5035396;28;19928;-92
2021/07/27 00:12:44;;;;;;;;;;;;;;;;;;5033632;28;19925;-92
2021/07/27 00:15:14;;;;;;;;;;;;;;;;;;5050703;28;21325;-92
2021/07/27 00:17:43;;;;;;;;;;;;;;;;;;5034784;28;19925;-91
2021/07/27 00:20:11;;;;;;;;;;;;;;;;;;5030686;28;19925;-93
2021/07/27 00:22:40;;;;;;;;;;;;;;;;;;5044155;28;19925;-91
2021/07/27 00:25:08;;;;;;;;;;;;;;;;;;5032852;28;19925;-90
2021/07/27 00:27:36;;;;;;;;;;;;;;;;;;5025398;28;19929;-91
2021/07/27 00:30:07;;;;;;;;;;;;;;;;;;5022264;28;19925;-91
2021/07/27 00:32:35;;;;;;;;;;;;;;;;;;5040080;28;20168;-91
2021/07/27 00:35:04;;;;;;;;;;;;;;;;;;5016696;28;19948;-92
2021/07/27 00:37:34;;;;;;;;;;;;;;;;;;5029712;28;19948;-91
2021/07/27 00:40:03;;;;;;;;;;;;;;;;;;5023626;28;19932;-92
2021/07/27 00:42:31;;;;;;;;;;;;;;;;;;5034317;28;19932;-92
2021/07/27 00:44:59;;;;;;;;;;;;;;;;;;5022427;28;19924;-91
2021/07/27 00:47:29;;;;;;;;;;;;;;;;;;5021729;28;20392;-92
2021/07/27 00:49:57;;;;;;;;;;;;;;;;;;5051020;28;19928;-92
2021/07/27 00:52:25;;;;;;;;;;;;;;;;;;5034562;28;19936;-92
2021/07/27 00:54:53;;;;;;;;;;;;;;;;;;5035316;28;20415;-91
2021/07/27 00:57:22;;;;;;;;;;;;;;;;;;5033242;28;19925;-92
2021/07/27 00:59:50;;;;;;;;;;;;;;;;;;5032007;28;19932;-92
2021/07/27 01:02:18;;;;;;;;;;;;;;;;;;5035862;28;19935;-91
2021/07/27 01:04:48;;;;;;;;;;;;;;;;;;5032081;28;20427;-91
2021/07/27 01:07:18;;;;;;;;;;;;;;;;;;5055652;28;19929;-92
2021/07/27 01:09:46;;;;;;;;;;;;;;;;;;5052973;28;19925;-92
2021/07/27 01:12:14;;;;;;;;;;;;;;;;;;5035405;28;19932;-93
2021/07/27 01:14:42;;;;;;;;;;;;;;;;;;5046566;28;19932;-91
2021/07/27 01:17:10;;;;;;;;;;;;;;;;;;5038369;28;19936;-91
2021/07/27 01:19:46;;;;;;;;;;;;;;;;;;5033762;28;20423;-93
2021/07/27 01:39:06;;;;;;;;;;;;;;;;;;5026774;28;19925;-92
2021/07/27 01:44:20;;;;;;;;;;;;;;;;;;5038892;28;19925;-92
2021/07/27 01:46:52;;;;;;;;;;;;;;;;;;5035434;28;19929;-91
2021/07/27 01:49:20;;;;;;;;;;;;;;;;;;5039611;28;19931;-91
2021/07/27 01:51:49;;;;;;;;;;;;;;;;;;5038980;28;19928;-92
2021/07/27 01:54:28;;;;;;;;;;;;;;;;;;5037865;28;19932;-92
2021/07/27 01:56:56;;;;;;;;;;;;;;;;;;5037681;28;19933;-91
2021/07/27 01:59:25;;;;;;;;;;;;;;;;;;5038558;28;19925;-92
2021/07/27 02:01:53;;;;;;;;;;;;;;;;;;5040302;28;19925;-92
2021/07/27 02:04:21;;;;;;;;;;;;;;;;;;5031921;28;20300;-91
2021/07/27 02:06:49;;;;;;;;;;;;;;;;;;5034596;28;19925;-92
2021/07/27 02:09:19;;;;;;;;;;;;;;;;;;5025275;28;19932;-91
2021/07/27 02:11:48;;;;;;;;;;;;;;;;;;5038283;28;19925;-92
2021/07/27 02:14:17;;;;;;;;;;;;;;;;;;5035399;28;19925;-92
2021/07/27 02:16:45;;;;;;;;;;;;;;;;;;5036364;28;20300;-90
2021/07/27 02:19:14;;;;;;;;;;;;;;;;;;5038583;28;20129;-91
2021/07/27 02:21:42;;;;;;;;;;;;;;;;;;5035126;28;19925;-93
2021/07/27 02:24:11;;;;;;;;;;;;;;;;;;5040069;28;19929;-91
2021/07/27 02:26:41;;;;;;;;;;;;;;;;;;5061122;28;19932;-90
2021/07/27 02:29:09;;;;;;;;;;;;;;;;;;5035255;28;20327;-92
2021/07/27 02:31:42;;;;;;;;;;;;;;;;;;5037966;28;19925;-92
2021/07/27 02:34:11;;;;;;;;;;;;;;;;;;5041409;28;19932;-94
2021/07/27 02:36:39;;;;;;;;;;;;;;;;;;5030841;28;19929;-91
2021/07/27 02:39:08;;;;;;;;;;;;;;;;;;5035604;28;20429;-91
2021/07/27 02:41:36;;;;;;;;;;;;;;;;;;5037187;28;19929;-93
2021/07/27 02:44:06;;;;;;;;;;;;;;;;;;5038373;28;19925;-90
2021/07/27 02:46:34;;;;;;;;;;;;;;;;;;5054109;28;19931;-92
2021/07/27 02:49:03;;;;;;;;;;;;;;;;;;5036962;28;19925;-93
2021/07/27 02:51:31;;;;;;;;;;;;;;;;;;5039153;28;20393;-93
2021/07/27 02:54:00;;;;;;;;;;;;;;;;;;5038325;28;19933;-91
2021/07/27 02:56:29;;;;;;;;;;;;;;;;;;5036755;28;19924;-91
2021/07/27 02:58:57;;;;;;;;;;;;;;;;;;5039401;28;19936;-90
2021/07/27 03:01:26;;;;;;;;;;;;;;;;;;5043268;28;19925;-93
2021/07/27 03:03:55;;;;;;;;;;;;;;;;;;5058414;28;19931;-91
2021/07/27 03:06:23;;;;;;;;;;;;;;;;;;5041818;28;20308;-92
2021/07/27 03:09:03;;;;;;;;;;;;;;;;;;5040097;28;19925;-91
2021/07/27 03:11:31;;;;;;;;;;;;;;;;;;5041323;28;19932;-91
2021/07/27 03:13:59;;;;;;;;;;;;;;;;;;5036682;28;20011;-93
2021/07/27 03:16:29;;;;;;;;;;;;;;;;;;5039611;28;19924;-92
2021/07/27 03:18:57;;;;;;;;;;;;;;;;;;5042943;28;20396;-92
2021/07/27 03:21:26;;;;;;;;;;;;;;;;;;5039122;28;19925;-92
2021/07/27 03:23:54;;;;;;;;;;;;;;;;;;5041188;28;19932;-92
2021/07/27 03:26:23;;;;;;;;;;;;;;;;;;5041006;28;19940;-92
2021/07/27 03:28:51;;;;;;;;;;;;;;;;;;5061090;28;19932;-91
2021/07/27 03:31:19;;;;;;;;;;;;;;;;;;5030747;28;19925;-93
2021/07/27 03:33:49;;;;;;;;;;;;;;;;;;5035417;28;19936;-94
2021/07/27 03:36:17;;;;;;;;;;;;;;;;;;5027237;28;19929;-92
2021/07/27 03:38:45;;;;;;;;;;;;;;;;;;5040920;28;19925;-92
2021/07/27 03:41:13;;;;;;;;;;;;;;;;;;5036383;28;19932;-92
2021/07/27 03:43:42;;;;;;;;;;;;;;;;;;5031913;28;19933;-94
2021/07/27 03:46:10;;;;;;;;;;;;;;;;;;5039507;28;19932;-92
2021/07/27 03:48:38;;;;;;;;;;;;;;;;;;5031111;28;19925;-93
2021/07/27 03:51:08;;;;;;;;;;;;;;;;;;5040093;28;19924;-93
2021/07/27 03:53:36;;;;;;;;;;;;;;;;;;5035962;28;19933;-95
2021/07/27 03:56:04;;;;;;;;;;;;;;;;;;5057680;28;20045;-93
2021/07/27 03:58:33;;;;;;;;;;;;;;;;;;5037953;28;19925;-91
2021/07/27 04:01:04;;;;;;;;;;;;;;;;;;5039028;28;19928;-93
2021/07/27 04:03:33;;;;;;;;;;;;;;;;;;5038716;28;19935;-93
2021/07/27 04:06:02;;;;;;;;;;;;;;;;;;5037461;28;19925;-92
2021/07/27 04:08:32;;;;;;;;;;;;;;;;;;5035225;28;20321;-93
2021/07/27 04:11:00;;;;;;;;;;;;;;;;;;5032098;28;19932;-94
2021/07/27 04:13:30;;;;;;;;;;;;;;;;;;5034226;28;19925;-93
2021/07/27 04:15:59;;;;;;;;;;;;;;;;;;5034744;28;19931;-92
2021/07/27 04:18:27;;;;;;;;;;;;;;;;;;5032776;28;20301;-92
2021/07/27 04:20:56;;;;;;;;;;;;;;;;;;5030581;28;19925;-92
2021/07/27 04:23:24;;;;;;;;;;;;;;;;;;5037162;28;20410;-92
2021/07/27 04:25:54;;;;;;;;;;;;;;;;;;5037807;28;19933;-93
2021/07/27 04:28:22;;;;;;;;;;;;;;;;;;5037694;28;19909;-94
2021/07/27 04:30:50;;;;;;;;;;;;;;;;;;5071605;28;19915;-96
2021/07/27 04:33:18;;;;;;;;;;;;;;;;;;5055695;28;19909;-93
2021/07/27 04:35:47;;;;;;;;;;;;;;;;;;5055780;28;19935;-91
2021/07/27 04:38:15;;;;;;;;;;;;;;;;;;5051566;28;19909;-93
2021/07/27 04:40:43;;;;;;;;;;;;;;;;;;5054324;28;19919;-94
2021/07/27 04:43:13;;;;;;;;;;;;;;;;;;5059800;28;19931;-93
2021/07/27 04:45:41;;;;;;;;;;;;;;;;;;5060339;28;19925;-93
2021/07/27 04:48:09;;;;;;;;;;;;;;;;;;5060424;28;19912;-93
2021/07/27 04:50:38;;;;;;;;;;;;;;;;;;5056850;28;19913;-94
2021/07/27 04:53:08;;;;;;;;;;;;;;;;;;5040410;28;19924;-94
2021/07/27 04:55:37;;;;;;;;;;;;;;;;;;5058250;28;19936;-93
2021/07/27 04:58:05;;;;;;;;;;;;;;;;;;5042130;28;20312;-92
2021/07/27 05:00:35;;;;;;;;;;;;;;;;;;5057645;28;20307;-91
2021/07/27 05:03:03;;;;;;;;;;;;;;;;;;5043601;28;19925;-92
2021/07/27 05:05:32;;;;;;;;;;;;;;;;;;5049185;28;19928;-92
2021/07/27 05:08:00;;;;;;;;;;;;;;;;;;5041395;28;19925;-91
2021/07/27 05:10:28;;;;;;;;;;;;;;;;;;5037514;28;19925;-93
2021/07/27 05:12:57;;;;;;;;;;;;;;;;;;5042247;28;19937;-93
2021/07/27 05:15:25;;;;;;;;;;;;;;;;;;5038939;28;19948;-91
2021/07/27 05:17:55;;;;;;;;;;;;;;;;;;5066568;28;19926;-90
2021/07/27 05:20:23;;;;;;;;;;;;;;;;;;5034655;28;19920;-91
2021/07/27 05:22:51;;;;;;;;;;;;;;;;;;5035455;28;19933;-93
2021/07/27 05:25:19;;;;;;;;;;;;;;;;;;5040735;28;19925;-93
2021/07/27 05:27:48;;;;;;;;;;;;;;;;;;5039925;28;20381;-92
2021/07/27 05:30:16;;;;;;;;;;;;;;;;;;5039073;28;19929;-92
2021/07/27 05:32:44;;;;;;;;;;;;;;;;;;5036745;28;20298;-91
2021/07/27 05:35:14;;;;;;;;;;;;;;;;;;5056717;28;19931;-93
2021/07/27 05:37:44;;;;;;;;;;;;;;;;;;5042088;28;19936;-93
2021/07/27 05:40:12;;;;;;;;;;;;;;;;;;5041981;28;19936;-92
2021/07/27 05:42:41;;;;;;;;;;;;;;;;;;5042949;28;20306;-91
2021/07/27 05:45:09;;;;;;;;;;;;;;;;;;5042148;28;19948;-92
2021/07/27 05:47:38;;;;;;;;;;;;;;;;;;5043040;28;19931;-92
2021/07/27 05:50:09;;;;;;;;;;;;;;;;;;5041653;28;20300;-92
2021/07/27 05:52:38;;;;;;;;;;;;;;;;;;5063458;28;19919;-95
2021/07/27 05:55:07;;;;;;;;;;;;;;;;;;5082529;28;19915;-93
2021/07/27 05:57:35;;;;;;;;;;;;;;;;;;5059891;28;19913;-94
2021/07/27 06:00:04;;;;;;;;;;;;;;;;;;5056845;28;19913;-94
2021/07/27 06:02:35;;;;;;;;;;;;;;;;;;5079510;28;19923;-95
2021/07/27 06:05:04;;;;;;;;;;;;;;;;;;5062174;28;19921;-93
2021/07/27 06:07:33;;;;;;;;;;;;;;;;;;5061828;28;20438;-93
2021/07/27 06:10:02;;;;;;;;;;;;;;;;;;5043163;28;19932;-92
2021/07/27 06:12:30;;;;;;;;;;;;;;;;;;5045577;28;19925;-91
2021/07/27 06:14:59;;;;;;;;;;;;;;;;;;5044197;28;20293;-93
2021/07/27 06:17:27;;;;;;;;;;;;;;;;;;5040010;28;19924;-91
2021/07/27 06:19:55;;;;;;;;;;;;;;;;;;5049034;28;20303;-92
2021/07/27 06:22:23;;;;;;;;;;;;;;;;;;5065278;28;19935;-91
2021/07/27 06:24:52;;;;;;;;;;;;;;;;;;5041186;28;19925;-92
2021/07/27 06:27:21;;;;;;;;;;;;;;;;;;5041186;28;19925;-92
2021/07/27 06:29:50;;;;;;;;;;;;;;;;;;5022015;28;19948;-91
2021/07/27 06:32:18;;;;;;;;;;;;;;;;;;5031389;28;19936;-93
2021/07/27 06:34:46;;;;;;;;;;;;;;;;;;5041461;28;19932;-92
2021/07/27 06:37:14;;;;;;;;;;;;;;;;;;5039296;28;19929;-91
2021/07/27 06:39:42;;;;;;;;;;;;;;;;;;5054423;28;19925;-90
2021/07/27 06:42:11;;;;;;;;;;;;;;;;;;5033332;28;19925;-93
2021/07/27 06:44:40;;;;;;;;;;;;;;;;;;5041558;28;19932;-92
2021/07/27 06:47:09;;;;;;;;;;;;;;;;;;5033395;28;19925;-92
2021/07/27 06:49:37;;;;;;;;;;;;;;;;;;5037155;28;19925;-92
2021/07/27 06:52:05;;;;;;;;;;;;;;;;;;5031447;28;19926;-91
2021/07/27 06:54:34;;;;;;;;;;;;;;;;;;5036260;28;19924;-93
2021/07/27 06:57:02;;;;;;;;;;;;;;;;;;5028045;28;19925;-91
2021/07/27 06:59:30;;;;;;;;;;;;;;;;;;5025844;28;19932;-92
2021/07/27 07:02:00;;;;;;;;;;;;;;;;;;5024768;28;19925;-93
2021/07/27 07:04:28;;;;;;;;;;;;;;;;;;5037169;28;20322;-91
2021/07/27 07:06:56;;;;;;;;;;;;;;;;;;5033853;28;19924;-91
2021/07/27 07:09:25;;;;;;;;;;;;;;;;;;5033345;28;19940;-91
2021/07/27 07:11:53;;;;;;;;;;;;;;;;;;5051597;28;20296;-92
2021/07/27 07:14:21;;;;;;;;;;;;;;;;;;5031686;28;19932;-91
2021/07/27 07:16:49;;;;;;;;;;;;;;;;;;5052131;28;19925;-92
2021/07/27 07:19:19;;;;;;;;;;;;;;;;;;5035426;28;19952;-93
2021/07/27 07:21:47;;;;;;;;;;;;;;;;;;5035289;28;19925;-91
2021/07/27 07:24:15;;;;;;;;;;;;;;;;;;5048156;28;19929;-92
2021/07/27 07:26:44;;;;;;;;;;;;;;;;;;5048653;28;19925;-92
2021/07/27 07:29:12;;;;;;;;;;;;;;;;;;5033899;28;19933;-92
2021/07/27 07:31:40;;;;;;;;;;;;;;;;;;5032471;28;20416;-90
2021/07/27 07:34:08;;;;;;;;;;;;;;;;;;5033086;28;19925;-90
2021/07/27 07:36:38;;;;;;;;;;;;;;;;;;5031221;28;19925;-90
2021/07/27 07:39:06;;;;;;;;;;;;;;;;;;5034679;28;19926;-92
2021/07/27 07:41:34;;;;;;;;;;;;;;;;;;5031305;28;19925;-90
2021/07/27 07:44:02;;;;;;;;;;;;;;;;;;5022070;28;19940;-91
2021/07/27 07:46:31;;;;;;;;;;;;;;;;;;5036460;28;19935;-90
2021/07/27 07:48:59;;;;;;;;;;;;;;;;;;5032532;28;19925;-92
2021/07/27 07:51:28;;;;;;;;;;;;;;;;;;5034465;28;19941;-92
2021/07/27 07:53:57;;;;;;;;;;;;;;;;;;5032466;28;19936;-92
2021/07/27 07:56:25;;;;;;;;;;;;;;;;;;5023450;28;19948;-92
2021/07/27 07:58:53;;;;;;;;;;;;;;;;;;5047478;28;19925;-91
2021/07/27 08:01:21;;;;;;;;;;;;;;;;;;5041329;28;20411;-91
2021/07/27 08:03:50;;;;;;;;;;;;;;;;;;5021163;28;19932;-91
2021/07/27 08:06:18;;;;;;;;;;;;;;;;;;5025314;28;19948;-92
2021/07/27 08:08:46;;;;;;;;;;;;;;;;;;5032510;28;19929;-91
2021/07/27 08:11:16;;;;;;;;;;;;;;;;;;5028555;28;19932;-91
2021/07/27 08:13:44;;;;;;;;;;;;;;;;;;5035067;28;19925;-92
2021/07/27 08:16:12;;;;;;;;;;;;;;;;;;5035663;28;19924;-91
2021/07/27 08:18:40;;;;;;;;;;;;;;;;;;5036055;28;19925;-90
2021/07/27 08:21:08;;;;;;;;;;;;;;;;;;5029168;28;19932;-90
2021/07/27 08:23:40;;;;;;;;;;;;;;;;;;5032162;28;19943;-91
2021/07/27 08:26:08;;;;;;;;;;;;;;;;;;5032848;28;19936;-91
2021/07/27 08:28:38;;;;;;;;;;;;;;;;;;5037423;28;19936;-91
2021/07/27 08:31:06;;;;;;;;;;;;;;;;;;5030064;28;19961;-91
2021/07/27 08:33:34;;;;;;;;;;;;;;;;;;5034337;28;19925;-91
2021/07/27 08:36:02;;;;;;;;;;;;;;;;;;5035352;28;19932;-90
2021/07/27 08:38:34;;;;;;;;;;;;;;;;;;5048344;28;20539;-91
2021/07/27 08:41:02;;;;;;;;;;;;;;;;;;5031173;28;19932;-91
2021/07/27 08:43:30;;;;;;;;;;;;;;;;;;5023788;28;20376;-90
2021/07/27 08:45:59;;;;;;;;;;;;;;;;;;5033155;28;19924;-89
2021/07/27 08:48:28;;;;;;;;;;;;;;;;;;5031067;28;19932;-91
2021/07/27 08:50:56;;;;;;;;;;;;;;;;;;5032226;28;19925;-90
2021/07/27 08:53:24;;;;;;;;;;;;;;;;;;5025206;28;19925;-90
2021/07/27 08:55:52;;;;;;;;;;;;;;;;;;5031848;28;19962;-91
2021/07/27 08:58:21;;;;;;;;;;;;;;;;;;5027961;28;20415;-90
2021/07/27 09:00:49;;;;;;;;;;;;;;;;;;5034595;28;19929;-91
2021/07/27 09:03:20;;;;;;;;;;;;;;;;;;5032490;28;20379;-90
2021/07/27 09:05:51;;;;;;;;;;;;;;;;;;5034519;28;19936;-91
2021/07/27 09:08:20;;;;;;;;;;;;;;;;;;5034052;28;19925;-91
2021/07/27 09:10:48;;;;;;;;;;;;;;;;;;5032042;28;19943;-91
2021/07/27 09:13:16;;;;;;;;;;;;;;;;;;5034212;28;20297;-90
2021/07/27 09:15:45;;;;;;;;;;;;;;;;;;5034593;28;19932;-91
2021/07/27 09:18:14;;;;;;;;;;;;;;;;;;5035408;28;20328;-91
2021/07/27 09:20:47;;;;;;;;;;;;;;;;;;5055009;28;19925;-90
2021/07/27 09:23:15;;;;;;;;;;;;;;;;;;5038299;28;19935;-90
2021/07/27 09:25:44;;;;;;;;;;;;;;;;;;5044135;28;19925;-90
2021/07/27 09:28:12;;;;;;;;;;;;;;;;;;5024565;28;19935;-91
2021/07/27 09:30:42;;;;;;;;;;;;;;;;;;5034688;28;19928;-90
2021/07/27 09:33:10;;;;;;;;;;;;;;;;;;5036579;28;20339;-90
2021/07/27 09:35:40;;;;;;;;;;;;;;;;;;5038905;28;19932;-90
2021/07/27 09:38:10;;;;;;;;;;;;;;;;;;5040239;28;20331;-90
2021/07/27 09:40:48;;;;;;;;;;;;;;;;;;5030407;28;19932;-90
2021/07/27 09:43:25;;;;;;;;;;;;;;;;;;5025829;28;19948;-89
2021/07/27 09:45:54;;;;;;;;;;;;;;;;;;5052418;28;19925;-90
2021/07/27 09:48:22;;;;;;;;;;;;;;;;;;5050313;28;19925;-88
2021/07/27 09:50:50;;;;;;;;;;;;;;;;;;5037928;28;19935;-90
2021/07/27 09:53:20;;;;;;;;;;;;;;;;;;5031301;28;20443;-90
2021/07/27 09:55:48;;;;;;;;;;;;;;;;;;5024694;28;19929;-90
2021/07/27 09:58:16;;;;;;;;;;;;;;;;;;5034673;28;19925;-90
2021/07/27 10:00:50;;;;;;;;;;;;;;;;;;5048276;28;20385;-90
2021/07/27 10:03:20;;;;;;;;;;;;;;;;;;5035540;28;20312;-89
2021/07/27 10:05:49;;;;;;;;;;;;;;;;;;5035508;28;19929;-89
2021/07/27 10:08:26;;;;;;;;;;;;;;;;;;5032334;28;19926;-90
2021/07/27 10:11:05;;;;;;;;;;;;;;;;;;5054594;28;19932;-90
2021/07/27 10:13:33;;;;;;;;;;;;;;;;;;5033287;28;19925;-90
2021/07/27 10:16:01;;;;;;;;;;;;;;;;;;5037328;28;19929;-90
2021/07/27 10:18:33;;;;;;;;;;;;;;;;;;5036301;28;20400;-90
2021/07/27 10:21:24;;;;;;;;;;;;;;;;;;5033006;28;19925;-90
2021/07/27 10:23:53;;;;;;;;;;;;;;;;;;5050328;28;19929;-90
2021/07/27 10:26:29;;;;;;;;;;;;;;;;;;5053776;28;19925;-90
2021/07/27 10:28:58;;;;;;;;;;;;;;;;;;5038838;28;19925;-90
2021/07/27 10:31:33;;;;;;;;;;;;;;;;;;5059036;28;19932;-90
2021/07/27 10:34:02;;;;;;;;;;;;;;;;;;5038012;28;20308;-90
2021/07/27 10:36:32;;;;;;;;;;;;;;;;;;5055395;28;19925;-89
2021/07/27 10:39:14;;;;;;;;;;;;;;;;;;5055265;28;19931;-89
2021/07/27 10:41:44;;;;;;;;;;;;;;;;;;5031837;28;20342;-89
2021/07/27 10:44:13;;;;;;;;;;;;;;;;;;5054618;28;19925;-89
2021/07/27 10:46:42;;;;;;;;;;;;;;;;;;5037803;28;19929;-89
2021/07/27 10:49:17;;;;;;;;;;;;;;;;;;5036510;28;19925;-89
2021/07/27 10:51:46;;;;;;;;;;;;;;;;;;5025586;28;19925;-88
2021/07/27 10:54:15;;;;;;;;;;;;;;;;;;5036763;28;19924;-89
2021/07/27 10:56:58;;;;;;;;;;;;;;;;;;5037128;28;19925;-90
2021/07/27 10:59:31;;;;;;;;;;;;;;;;;;5017622;28;19935;-89
2021/07/27 11:01:59;;;;;;;;;;;;;;;;;;5036363;28;19925;-89
2021/07/27 11:04:28;;;;;;;;;;;;;;;;;;5036652;28;19935;-88
2021/07/27 11:07:07;;;;;;;;;;;;;;;;;;5034164;28;19932;-88
2021/07/27 11:09:35;;;;;;;;;;;;;;;;;;5060373;28;19945;-90
2021/07/27 11:12:03;;;;;;;;;;;;;;;;;;5050055;28;19937;-88
2021/07/27 11:14:33;;;;;;;;;;;;;;;;;;5046308;28;19925;-88
2021/07/27 11:17:01;;;;;;;;;;;;;;;;;;5037040;28;20317;-88
2021/07/27 11:19:31;;;;;;;;;;;;;;;;;;5038934;28;19925;-89
2021/07/27 11:21:59;;;;;;;;;;;;;;;;;;5028822;28;19929;-91
2021/07/27 11:24:28;;;;;;;;;;;;;;;;;;5037188;28;20426;-88
2021/07/27 11:26:56;;;;;;;;;;;;;;;;;;5029003;28;19933;-88
2021/07/27 11:29:24;;;;;;;;;;;;;;;;;;5035923;28;20295;-89
2021/07/27 11:31:56;;;;;;;;;;;;;;;;;;5036805;28;19925;-89
2021/07/27 11:34:28;;;;;;;;;;;;;;;;;;5046861;28;19924;-89
2021/07/27 11:36:57;;;;;;;;;;;;;;;;;;5030468;28;20388;-88
2021/07/27 11:39:25;;;;;;;;;;;;;;;;;;5032652;28;20388;-89
2021/07/27 11:42:03;;;;;;;;;;;;;;;;;;5031031;28;20632;-88
2021/07/27 11:44:31;;;;;;;;;;;;;;;;;;5040876;28;19929;-89
2021/07/27 11:47:00;;;;;;;;;;;;;;;;;;5033906;28;20308;-88
2021/07/27 11:49:33;;;;;;;;;;;;;;;;;;5032770;28;19925;-89
2021/07/27 11:52:03;;;;;;;;;;;;;;;;;;5035402;28;20438;-88
2021/07/27 11:54:31;;;;;;;;;;;;;;;;;;5036243;28;19925;-91
2021/07/27 11:57:00;;;;;;;;;;;;;;;;;;5026319;28;19932;-88
2021/07/27 11:59:29;;;;;;;;;;;;;;;;;;5032443;28;19925;-88
2021/07/27 12:01:57;;;;;;;;;;;;;;;;;;5031024;28;19929;-88
2021/07/27 12:04:27;;;;;;;;;;;;;;;;;;5035065;28;19993;-89
2021/07/27 12:06:56;;;;;;;;;;;;;;;;;;5035149;28;19925;-88
2021/07/27 12:09:26;;;;;;;;;;;;;;;;;;5034551;28;19925;-88
2021/07/27 12:11:54;;;;;;;;;;;;;;;;;;5031327;28;19925;-88
2021/07/27 12:14:22;;;;;;;;;;;;;;;;;;5045585;28;19925;-88
2021/07/27 12:16:51;;;;;;;;;;;;;;;;;;5035136;28;19925;-88
2021/07/27 12:19:19;;;;;;;;;;;;;;;;;;5035798;28;20311;-90
2021/07/27 12:21:48;;;;;;;;;;;;;;;;;;5035606;28;19932;-89
2021/07/27 12:24:16;;;;;;;;;;;;;;;;;;5030081;28;19925;-88
2021/07/27 12:26:44;;;;;;;;;;;;;;;;;;5058090;28;19925;-88
2021/07/27 12:29:13;;;;;;;;;;;;;;;;;;5027541;28;19936;-89
2021/07/27 12:31:41;;;;;;;;;;;;;;;;;;5035103;28;19924;-89
2021/07/27 12:34:09;;;;;;;;;;;;;;;;;;5028686;28;19932;-88
2021/07/27 12:36:37;;;;;;;;;;;;;;;;;;5024034;28;19929;-88
2021/07/27 12:39:06;;;;;;;;;;;;;;;;;;5042182;28;19932;-88
2021/07/27 12:41:35;;;;;;;;;;;;;;;;;;5031383;28;19932;-89
2021/07/27 12:44:03;;;;;;;;;;;;;;;;;;5030925;28;19939;-89
2021/07/27 12:46:32;;;;;;;;;;;;;;;;;;5028975;28;19932;-89
2021/07/27 12:49:01;;;;;;;;;;;;;;;;;;5049451;28;19929;-89
2021/07/27 12:51:30;;;;;;;;;;;;;;;;;;5026475;28;19913;-90
2021/07/27 12:53:58;;;;;;;;;;;;;;;;;;5054755;28;20312;-89
2021/07/27 12:56:27;;;;;;;;;;;;;;;;;;5038898;28;19935;-89
2021/07/27 12:58:57;;;;;;;;;;;;;;;;;;5030694;28;20392;-89
2021/07/27 13:01:26;;;;;;;;;;;;;;;;;;5039759;28;19932;-90
2021/07/27 13:03:54;;;;;;;;;;;;;;;;;;5055388;28;20331;-89
2021/07/27 13:06:22;;;;;;;;;;;;;;;;;;5026557;28;20316;-89
2021/07/27 13:08:50;;;;;;;;;;;;;;;;;;5043269;28;19932;-89
2021/07/27 13:11:18;;;;;;;;;;;;;;;;;;5038384;28;20292;-89
2021/07/27 13:13:48;;;;;;;;;;;;;;;;;;5035325;28;20285;-89
2021/07/27 13:16:17;;;;;;;;;;;;;;;;;;5038764;28;20388;-89
2021/07/27 13:18:45;;;;;;;;;;;;;;;;;;5038987;28;20395;-89
2021/07/27 13:21:13;;;;;;;;;;;;;;;;;;5047234;28;20300;-89
2021/07/27 13:23:41;;;;;;;;;;;;;;;;;;5029392;28;19935;-89
2021/07/27 13:26:10;;;;;;;;;;;;;;;;;;5037633;28;19933;-89
2021/07/27 13:28:38;;;;;;;;;;;;;;;;;;5065750;28;19932;-90
2021/07/27 13:31:08;;;;;;;;;;;;;;;;;;5036759;28;20299;-90
2021/07/27 13:33:36;;;;;;;;;;;;;;;;;;5038698;28;19925;-89
2021/07/27 13:36:04;;;;;;;;;;;;;;;;;;5037494;28;19931;-89
2021/07/27 13:38:32;;;;;;;;;;;;;;;;;;5037873;28;19932;-89
2021/07/27 13:41:01;;;;;;;;;;;;;;;;;;5053382;28;19932;-90
2021/07/27 13:43:29;;;;;;;;;;;;;;;;;;5038442;28;19932;-89
2021/07/27 13:45:57;;;;;;;;;;;;;;;;;;5037339;28;19928;-89
2021/07/27 13:48:27;;;;;;;;;;;;;;;;;;5038467;28;19925;-89
2021/07/27 13:50:55;;;;;;;;;;;;;;;;;;5026232;28;19932;-89
2021/07/27 13:53:26;;;;;;;;;;;;;;;;;;5030812;28;19925;-91
2021/07/27 13:55:55;;;;;;;;;;;;;;;;;;5048002;28;20312;-89
2021/07/27 13:58:23;;;;;;;;;;;;;;;;;;5032306;28;19929;-88
2021/07/27 14:00:52;;;;;;;;;;;;;;;;;;5032114;28;19925;-89
2021/07/27 14:03:20;;;;;;;;;;;;;;;;;;5050016;28;20392;-89
2021/07/27 14:05:49;;;;;;;;;;;;;;;;;;5037652;28;19936;-89
2021/07/27 14:08:18;;;;;;;;;;;;;;;;;;5037784;28;19929;-90
2021/07/27 14:10:46;;;;;;;;;;;;;;;;;;5030024;28;19932;-89
2021/07/27 14:13:14;;;;;;;;;;;;;;;;;;5034203;28;19928;-89
2021/07/27 14:15:42;;;;;;;;;;;;;;;;;;5034027;28;19925;-89
2021/07/27 14:18:10;;;;;;;;;;;;;;;;;;5034768;28;19929;-89
2021/07/27 14:20:38;;;;;;;;;;;;;;;;;;5036620;28;19924;-89
2021/07/27 14:23:08;;;;;;;;;;;;;;;;;;5033857;28;19932;-89
2021/07/27 14:25:36;;;;;;;;;;;;;;;;;;5031299;28;19925;-89
2021/07/27 14:28:04;;;;;;;;;;;;;;;;;;5036223;28;19930;-89
2021/07/27 14:30:32;;;;;;;;;;;;;;;;;;5028693;28;19925;-89
2021/07/27 14:33:00;;;;;;;;;;;;;;;;;;5040597;28;19925;-89
2021/07/27 14:35:28;;;;;;;;;;;;;;;;;;5030029;28;19925;-89
2021/07/27 14:37:57;;;;;;;;;;;;;;;;;;5027192;28;19925;-89
2021/07/27 14:40:26;;;;;;;;;;;;;;;;;;5037283;28;20396;-89
2021/07/27 14:42:54;;;;;;;;;;;;;;;;;;5038911;28;19929;-89
2021/07/27 14:45:30;;;;;;;;;;;;;;;;;;5037178;28;19925;-89
2021/07/27 14:47:58;;;;;;;;;;;;;;;;;;5036845;28;19925;-89
2021/07/27 14:50:26;;;;;;;;;;;;;;;;;;5040967;28;19925;-89
2021/07/27 14:52:54;;;;;;;;;;;;;;;;;;5055850;28;19933;-90
2021/07/27 14:55:22;;;;;;;;;;;;;;;;;;5059372;28;19931;-90
2021/07/27 14:57:52;;;;;;;;;;;;;;;;;;5058878;28;19983;-90
2021/07/27 15:00:20;;;;;;;;;;;;;;;;;;5060452;28;19919;-89
2021/07/27 15:02:48;;;;;;;;;;;;;;;;;;5060260;28;19925;-90
2021/07/27 15:05:16;;;;;;;;;;;;;;;;;;5060724;28;19913;-90
2021/07/27 15:07:46;;;;;;;;;;;;;;;;;;5060855;28;19915;-91
2021/07/27 15:10:14;;;;;;;;;;;;;;;;;;5059199;28;19945;-89
2021/07/27 15:12:42;;;;;;;;;;;;;;;;;;5058362;28;19942;-89
2021/07/27 15:15:13;;;;;;;;;;;;;;;;;;5055485;28;19931;-89
2021/07/27 15:17:41;;;;;;;;;;;;;;;;;;5084885;28;19913;-90
2021/07/27 15:20:10;;;;;;;;;;;;;;;;;;5058548;28;19928;-90
2021/07/27 15:22:38;;;;;;;;;;;;;;;;;;5074057;28;20405;-90
2021/07/27 15:25:07;;;;;;;;;;;;;;;;;;5034349;28;20308;-90
2021/07/27 15:27:35;;;;;;;;;;;;;;;;;;5041605;28;19919;-90
2021/07/27 15:30:07;;;;;;;;;;;;;;;;;;5055468;28;19924;-90
2021/07/27 15:32:37;;;;;;;;;;;;;;;;;;5046430;28;19945;-90
2021/07/27 15:35:21;;;;;;;;;;;;;;;;;;5045417;28;19929;-90
2021/07/27 15:37:49;;;;;;;;;;;;;;;;;;5033774;28;19929;-89
2021/07/27 15:40:17;;;;;;;;;;;;;;;;;;5032390;28;19926;-90
2021/07/27 15:42:45;;;;;;;;;;;;;;;;;;5034612;28;19925;-90
2021/07/27 15:45:13;;;;;;;;;;;;;;;;;;5028325;28;20031;-90
2021/07/27 15:47:43;;;;;;;;;;;;;;;;;;5033305;28;19943;-90
2021/07/27 15:50:12;;;;;;;;;;;;;;;;;;5027987;28;19925;-90
2021/07/27 15:52:41;;;;;;;;;;;;;;;;;;5020763;28;19929;-90
2021/07/27 15:55:10;;;;;;;;;;;;;;;;;;5040331;28;19932;-91
2021/07/27 15:57:38;;;;;;;;;;;;;;;;;;5053502;28;19912;-91
2021/07/27 16:00:07;;;;;;;;;;;;;;;;;;5057487;28;19919;-91
2021/07/27 16:02:42;;;;;;;;;;;;;;;;;;5050331;28;19913;-91
2021/07/27 16:05:11;;;;;;;;;;;;;;;;;;5053474;28;19932;-90
2021/07/27 16:07:39;;;;;;;;;;;;;;;;;;5048732;28;19932;-90
2021/07/27 16:10:08;;;;;;;;;;;;;;;;;;5047630;28;19915;-90
2021/07/27 16:12:36;;;;;;;;;;;;;;;;;;5050540;28;19925;-90
2021/07/27 16:15:05;;;;;;;;;;;;;;;;;;5046767;28;19935;-90
2021/07/27 16:17:34;;;;;;;;;;;;;;;;;;5044831;28;19932;-90
2021/07/27 16:20:03;;;;;;;;;;;;;;;;;;5052211;28;19939;-90
2021/07/27 16:22:31;;;;;;;;;;;;;;;;;;5037579;28;19925;-90
2021/07/27 16:24:59;;;;;;;;;;;;;;;;;;5024622;28;19932;-90
2021/07/27 16:27:28;;;;;;;;;;;;;;;;;;5051099;28;20304;-90
2021/07/27 16:29:56;;;;;;;;;;;;;;;;;;5034299;28;19935;-90
2021/07/27 16:32:24;;;;;;;;;;;;;;;;;;5031501;28;20305;-89
2021/07/27 16:34:55;;;;;;;;;;;;;;;;;;5033259;28;19925;-90
2021/07/27 16:37:25;;;;;;;;;;;;;;;;;;5032192;28;19932;-90
2021/07/27 16:39:53;;;;;;;;;;;;;;;;;;5033728;28;19928;-90
2021/07/27 16:42:21;;;;;;;;;;;;;;;;;;5033069;28;19929;-90
2021/07/27 16:44:49;;;;;;;;;;;;;;;;;;5025104;28;19936;-90
2021/07/27 16:47:17;;;;;;;;;;;;;;;;;;5030488;28;19925;-90
2021/07/27 16:49:45;;;;;;;;;;;;;;;;;;5030378;28;20391;-89
2021/07/27 16:52:14;;;;;;;;;;;;;;;;;;5046152;28;19932;-90
2021/07/27 16:54:43;;;;;;;;;;;;;;;;;;5023542;28;19925;-90
2021/07/27 16:57:11;;;;;;;;;;;;;;;;;;5045925;28;19925;-90
2021/07/27 16:59:40;;;;;;;;;;;;;;;;;;5030000;28;19932;-90
2021/07/27 17:02:10;;;;;;;;;;;;;;;;;;5045368;28;19932;-90
2021/07/27 17:04:38;;;;;;;;;;;;;;;;;;5034042;28;19925;-90
2021/07/27 17:07:06;;;;;;;;;;;;;;;;;;5031494;28;19939;-90
2021/07/27 17:09:35;;;;;;;;;;;;;;;;;;5026387;28;19948;-90
2021/07/27 17:12:05;;;;;;;;;;;;;;;;;;5027132;28;19936;-90
2021/07/27 17:14:33;;;;;;;;;;;;;;;;;;5033189;28;19932;-90
2021/07/27 17:17:16;;;;;;;;;;;;;;;;;;5030754;28;20452;-90